Terminal Aerodrome Forecast
Issued by NWS Flagstaff, AZ

Home | Current Version | Previous Version | Text Only | Print | Product List | Glossary On
Versions: 1 2 3 4 5 6 7 8 9 10 11 12 13 14 15
000
FTUS45 KFGZ 260500 RRA
TAFFLG
TAF
KFLG 260542Z 2606/2706 VRB03KT P6SM FEW050 FEW250
     FM261800 22014G23KT P6SM SCT060 SCT250
     FM270100 23005KT P6SM FEW250=

USA.gov is the U.S. government's official web portal to all federal, state and local government web resources and services.